SWR1LK EDDF-LSZH
Flight info
| Callsign | SWR1LK |
|---|---|
| Flight time | 0h 32m |
| Altitude | 23000 |
| Route | ANEKI2L/18 ANEKI Y163 NEKLO Y171 INKAM T725 LAMGO T721 RILAX |
| Aircraft | A321/M-SDE3FGHIRWY/LB1 |
Departure
| Time | 2026-05-05 22:15 |
|---|---|
| Airport | Frankfurt Main Airport (EDDF) |
Arrival
| Time | 2026-05-05 22:47 |
|---|---|
| Airport | Zürich Airport (LSZH) |
| Time | Latitude | Longitude | Altitude | Speed | Heading |
|---|---|---|---|---|---|
| 2026-05-05 21:51 | 50.04850 | 8.56952 | 361 ft | 0 kts | 295° |
| 2026-05-05 22:02 | 50.04849 | 8.56956 | 356 ft | 1 kts | 295° |
| 2026-05-05 22:02 | 50.04842 | 8.56981 | 362 ft | 3 kts | 293° |
| 2026-05-05 22:02 | 50.04834 | 8.57009 | 363 ft | 3 kts | 292° |
| 2026-05-05 22:02 | 50.04830 | 8.57037 | 364 ft | 3 kts | 257° |
| 2026-05-05 22:03 | 50.04837 | 8.57062 | 362 ft | 3 kts | 218° |
| 2026-05-05 22:03 | 50.04845 | 8.57071 | 362 ft | 1 kts | 205° |
| 2026-05-05 22:03 | 50.04839 | 8.57067 | 362 ft | 3 kts | 205° |
| 2026-05-05 22:03 | 50.04821 | 8.57054 | 361 ft | 3 kts | 205° |
| 2026-05-05 22:04 | 50.04802 | 8.57041 | 358 ft | 2 kts | 205° |
| 2026-05-05 22:04 | 50.04796 | 8.57036 | 359 ft | 0 kts | 205° |
| 2026-05-05 22:08 | 50.04784 | 8.57028 | 362 ft | 5 kts | 205° |
| 2026-05-05 22:08 | 50.04729 | 8.56987 | 363 ft | 11 kts | 205° |
| 2026-05-05 22:08 | 50.04654 | 8.56933 | 364 ft | 14 kts | 204° |
| 2026-05-05 22:08 | 50.04545 | 8.56888 | 361 ft | 15 kts | 193° |
| 2026-05-05 22:09 | 50.04453 | 8.56824 | 362 ft | 15 kts | 234° |
| 2026-05-05 22:09 | 50.04410 | 8.56654 | 363 ft | 18 kts | 249° |
| 2026-05-05 22:09 | 50.04367 | 8.56474 | 362 ft | 18 kts | 250° |
| 2026-05-05 22:09 | 50.04319 | 8.56275 | 362 ft | 23 kts | 249° |
| 2026-05-05 22:10 | 50.04247 | 8.55987 | 360 ft | 34 kts | 249° |
| 2026-05-05 22:10 | 50.04169 | 8.55648 | 352 ft | 32 kts | 250° |
| 2026-05-05 22:10 | 50.04093 | 8.55327 | 358 ft | 31 kts | 249° |
| 2026-05-05 22:10 | 50.04020 | 8.55025 | 359 ft | 29 kts | 249° |
| 2026-05-05 22:11 | 50.03947 | 8.54725 | 357 ft | 30 kts | 249° |
| 2026-05-05 22:11 | 50.03876 | 8.54422 | 354 ft | 30 kts | 250° |
| 2026-05-05 22:11 | 50.03781 | 8.54145 | 351 ft | 29 kts | 249° |
| 2026-05-05 22:11 | 50.03712 | 8.53856 | 348 ft | 28 kts | 249° |
| 2026-05-05 22:12 | 50.03643 | 8.53575 | 336 ft | 28 kts | 249° |
| 2026-05-05 22:12 | 50.03573 | 8.53295 | 334 ft | 28 kts | 249° |
| 2026-05-05 22:12 | 50.03508 | 8.53016 | 337 ft | 27 kts | 250° |
| 2026-05-05 22:12 | 50.03436 | 8.52743 | 333 ft | 27 kts | 248° |
| 2026-05-05 22:13 | 50.03330 | 8.52594 | 335 ft | 20 kts | 182° |
| 2026-05-05 22:13 | 50.03232 | 8.52595 | 335 ft | 0 kts | 179° |
| 2026-05-05 22:13 | 50.03200 | 8.52595 | 335 ft | 23 kts | 180° |
| 2026-05-05 22:14 | 50.02797 | 8.52601 | 331 ft | 90 kts | 179° |
| 2026-05-05 22:14 | 50.01982 | 8.52608 | 335 ft | 142 kts | 180° |
| 2026-05-05 22:14 | 50.00855 | 8.52618 | 358 ft | 179 kts | 179° |
| 2026-05-05 22:14 | 49.99618 | 8.52620 | 915 ft | 176 kts | 180° |
| 2026-05-05 22:15 | 49.98394 | 8.52658 | 1548 ft | 176 kts | 180° |
| 2026-05-05 22:15 | 49.97122 | 8.52754 | 1877 ft | 192 kts | 179° |
| 2026-05-05 22:15 | 49.95712 | 8.52873 | 2054 ft | 213 kts | 179° |
| 2026-05-05 22:15 | 49.94193 | 8.52999 | 2500 ft | 222 kts | 179° |
| 2026-05-05 22:16 | 49.92611 | 8.53201 | 2981 ft | 238 kts | 175° |
| 2026-05-05 22:16 | 49.90904 | 8.53563 | 3436 ft | 254 kts | 173° |
| 2026-05-05 22:16 | 49.89129 | 8.53993 | 3981 ft | 261 kts | 173° |
| 2026-05-05 22:16 | 49.87333 | 8.54444 | 4783 ft | 262 kts | 174° |
| 2026-05-05 22:17 | 49.85524 | 8.54900 | 5568 ft | 264 kts | 174° |
| 2026-05-05 22:17 | 49.83697 | 8.55355 | 6327 ft | 267 kts | 174° |
| 2026-05-05 22:17 | 49.81850 | 8.55809 | 7011 ft | 270 kts | 174° |
| 2026-05-05 22:17 | 49.79977 | 8.56268 | 7697 ft | 274 kts | 174° |
| 2026-05-05 22:18 | 49.78109 | 8.56719 | 8372 ft | 277 kts | 174° |
| 2026-05-05 22:18 | 49.76169 | 8.57185 | 9060 ft | 281 kts | 174° |
| 2026-05-05 22:18 | 49.74229 | 8.57655 | 9731 ft | 284 kts | 174° |
| 2026-05-05 22:18 | 49.72240 | 8.58136 | 10111 ft | 298 kts | 174° |
| 2026-05-05 22:19 | 49.70147 | 8.58634 | 10238 ft | 319 kts | 174° |
| 2026-05-05 22:19 | 49.67856 | 8.59178 | 10368 ft | 338 kts | 174° |
| 2026-05-05 22:19 | 49.65500 | 8.59741 | 10567 ft | 354 kts | 174° |
| 2026-05-05 22:19 | 49.63051 | 8.60330 | 11073 ft | 358 kts | 174° |
| 2026-05-05 22:20 | 49.60577 | 8.60927 | 11655 ft | 361 kts | 174° |
| 2026-05-05 22:20 | 49.58082 | 8.61532 | 12233 ft | 364 kts | 173° |
| 2026-05-05 22:20 | 49.55566 | 8.62136 | 12799 ft | 367 kts | 174° |
| 2026-05-05 22:20 | 49.53026 | 8.62741 | 13372 ft | 370 kts | 174° |
| 2026-05-05 22:21 | 49.50469 | 8.63349 | 13903 ft | 373 kts | 173° |
| 2026-05-05 22:21 | 49.47895 | 8.63966 | 14431 ft | 376 kts | 173° |
| 2026-05-05 22:21 | 49.45303 | 8.64588 | 14966 ft | 378 kts | 173° |
| 2026-05-05 22:21 | 49.42700 | 8.65211 | 15509 ft | 380 kts | 173° |
| 2026-05-05 22:22 | 49.40084 | 8.65828 | 16014 ft | 382 kts | 173° |
| 2026-05-05 22:22 | 49.37453 | 8.66446 | 16526 ft | 384 kts | 173° |
| 2026-05-05 22:22 | 49.34806 | 8.67065 | 17012 ft | 385 kts | 173° |
| 2026-05-05 22:22 | 49.32146 | 8.67691 | 17490 ft | 387 kts | 173° |
| 2026-05-05 22:23 | 49.29468 | 8.68324 | 17961 ft | 389 kts | 173° |
| 2026-05-05 22:23 | 49.26782 | 8.68958 | 18387 ft | 392 kts | 173° |
| 2026-05-05 22:23 | 49.24082 | 8.69598 | 18794 ft | 393 kts | 172° |
| 2026-05-05 22:23 | 49.21372 | 8.70240 | 19198 ft | 395 kts | 172° |
| 2026-05-05 22:24 | 49.18645 | 8.70884 | 19614 ft | 397 kts | 172° |
| 2026-05-05 22:24 | 49.15910 | 8.71528 | 20068 ft | 398 kts | 172° |
| 2026-05-05 22:24 | 49.13156 | 8.72177 | 20493 ft | 400 kts | 172° |
| 2026-05-05 22:24 | 49.10398 | 8.72824 | 20928 ft | 402 kts | 172° |
| 2026-05-05 22:25 | 49.07624 | 8.73472 | 21342 ft | 404 kts | 172° |
| 2026-05-05 22:25 | 49.04824 | 8.74124 | 21785 ft | 406 kts | 172° |
| 2026-05-05 22:25 | 49.02022 | 8.74774 | 22224 ft | 409 kts | 172° |
| 2026-05-05 22:25 | 48.99244 | 8.75422 | 22637 ft | 411 kts | 172° |
| 2026-05-05 22:26 | 48.96375 | 8.76094 | 22832 ft | 413 kts | 172° |
| 2026-05-05 22:26 | 48.93553 | 8.76750 | 22856 ft | 416 kts | 173° |
| 2026-05-05 22:26 | 48.90681 | 8.77391 | 22861 ft | 416 kts | 175° |
| 2026-05-05 22:26 | 48.87791 | 8.77519 | 22859 ft | 415 kts | 184° |
| 2026-05-05 22:27 | 48.84933 | 8.76940 | 22867 ft | 415 kts | 191° |
| 2026-05-05 22:27 | 48.82096 | 8.76161 | 22866 ft | 415 kts | 191° |
| 2026-05-05 22:27 | 48.79256 | 8.75393 | 22866 ft | 415 kts | 191° |
| 2026-05-05 22:27 | 48.76415 | 8.74632 | 22866 ft | 415 kts | 191° |
| 2026-05-05 22:28 | 48.73576 | 8.73878 | 22867 ft | 414 kts | 192° |
| 2026-05-05 22:28 | 48.70744 | 8.73129 | 22868 ft | 412 kts | 192° |
| 2026-05-05 22:28 | 48.67917 | 8.72382 | 22862 ft | 412 kts | 192° |
| 2026-05-05 22:28 | 48.65094 | 8.71633 | 22862 ft | 412 kts | 192° |
| 2026-05-05 22:29 | 48.62271 | 8.70880 | 22866 ft | 412 kts | 192° |
| 2026-05-05 22:29 | 48.59453 | 8.70125 | 22861 ft | 412 kts | 192° |
| 2026-05-05 22:29 | 48.56630 | 8.69372 | 22862 ft | 412 kts | 192° |
| 2026-05-05 22:29 | 48.53804 | 8.68622 | 22861 ft | 412 kts | 192° |
| 2026-05-05 22:30 | 48.50984 | 8.67877 | 22860 ft | 411 kts | 192° |
| 2026-05-05 22:30 | 48.48163 | 8.67132 | 22870 ft | 411 kts | 192° |
| 2026-05-05 22:30 | 48.45383 | 8.66398 | 22867 ft | 411 kts | 192° |
| 2026-05-05 22:30 | 48.42563 | 8.65653 | 22867 ft | 411 kts | 192° |
| 2026-05-05 22:31 | 48.39744 | 8.64907 | 22874 ft | 411 kts | 192° |
| 2026-05-05 22:31 | 48.36927 | 8.64155 | 22874 ft | 411 kts | 192° |
| 2026-05-05 22:31 | 48.34116 | 8.63346 | 22872 ft | 411 kts | 193° |
| 2026-05-05 22:31 | 48.31311 | 8.62494 | 22751 ft | 411 kts | 193° |
| 2026-05-05 22:32 | 48.28522 | 8.61629 | 22472 ft | 409 kts | 193° |
| 2026-05-05 22:32 | 48.25742 | 8.60762 | 22207 ft | 407 kts | 193° |
| 2026-05-05 22:32 | 48.22969 | 8.59903 | 21937 ft | 406 kts | 193° |
| 2026-05-05 22:32 | 48.20205 | 8.59063 | 21679 ft | 405 kts | 193° |
| 2026-05-05 22:33 | 48.17462 | 8.58241 | 21224 ft | 397 kts | 193° |
| 2026-05-05 22:33 | 48.14776 | 8.57440 | 20666 ft | 390 kts | 193° |
| 2026-05-05 22:33 | 48.12143 | 8.56659 | 20126 ft | 382 kts | 192° |
| 2026-05-05 22:33 | 48.09563 | 8.55897 | 19611 ft | 374 kts | 192° |
| 2026-05-05 22:34 | 48.07035 | 8.55148 | 19119 ft | 368 kts | 193° |
| 2026-05-05 22:34 | 48.04533 | 8.54405 | 18644 ft | 366 kts | 193° |
| 2026-05-05 22:34 | 48.02037 | 8.53664 | 18178 ft | 365 kts | 193° |
| 2026-05-05 22:34 | 47.99553 | 8.52936 | 17677 ft | 363 kts | 191° |
| 2026-05-05 22:35 | 47.97039 | 8.52699 | 17235 ft | 363 kts | 179° |
| 2026-05-05 22:35 | 47.94539 | 8.53244 | 16786 ft | 364 kts | 168° |
| 2026-05-05 22:35 | 47.92161 | 8.54551 | 16339 ft | 366 kts | 156° |
| 2026-05-05 22:35 | 47.90005 | 8.56564 | 15893 ft | 367 kts | 145° |
| 2026-05-05 22:36 | 47.88027 | 8.58976 | 15430 ft | 366 kts | 144° |
| 2026-05-05 22:36 | 47.86065 | 8.61372 | 14968 ft | 364 kts | 144° |
| 2026-05-05 22:36 | 47.84109 | 8.63752 | 14485 ft | 362 kts | 144° |
| 2026-05-05 22:36 | 47.82162 | 8.66118 | 14011 ft | 360 kts | 144° |
| 2026-05-05 22:37 | 47.80226 | 8.68467 | 13488 ft | 358 kts | 144° |
| 2026-05-05 22:37 | 47.78305 | 8.70794 | 12980 ft | 355 kts | 144° |
| 2026-05-05 22:37 | 47.76395 | 8.73106 | 12466 ft | 352 kts | 144° |
| 2026-05-05 22:37 | 47.74506 | 8.75396 | 11960 ft | 349 kts | 145° |
| 2026-05-05 22:38 | 47.72643 | 8.77654 | 11644 ft | 340 kts | 145° |
| 2026-05-05 22:38 | 47.70848 | 8.79825 | 11469 ft | 326 kts | 145° |
| 2026-05-05 22:38 | 47.69100 | 8.81932 | 11066 ft | 321 kts | 146° |
| 2026-05-05 22:38 | 47.67397 | 8.83977 | 10737 ft | 318 kts | 146° |
| 2026-05-05 22:39 | 47.65680 | 8.86037 | 10582 ft | 317 kts | 144° |
| 2026-05-05 22:39 | 47.63964 | 8.88096 | 10442 ft | 316 kts | 144° |
| 2026-05-05 22:39 | 47.62350 | 8.90332 | 10301 ft | 319 kts | 133° |
| 2026-05-05 22:39 | 47.61111 | 8.93063 | 10137 ft | 322 kts | 121° |
| 2026-05-05 22:40 | 47.60073 | 8.95998 | 9962 ft | 319 kts | 124° |
| 2026-05-05 22:40 | 47.58619 | 8.98400 | 9529 ft | 313 kts | 148° |
| 2026-05-05 22:40 | 47.56632 | 8.99570 | 8913 ft | 305 kts | 175° |
| 2026-05-05 22:40 | 47.54594 | 8.99385 | 8762 ft | 286 kts | 197° |
| 2026-05-05 22:41 | 47.52862 | 8.98146 | 8624 ft | 270 kts | 218° |
| 2026-05-05 22:41 | 47.51438 | 8.96428 | 8501 ft | 258 kts | 220° |
| 2026-05-05 22:41 | 47.50088 | 8.94770 | 8369 ft | 246 kts | 220° |
| 2026-05-05 22:41 | 47.48778 | 8.93159 | 7865 ft | 249 kts | 220° |
| 2026-05-05 22:42 | 47.47459 | 8.91541 | 7197 ft | 248 kts | 220° |
| 2026-05-05 22:42 | 47.46146 | 8.89933 | 6567 ft | 242 kts | 221° |
| 2026-05-05 22:42 | 47.44868 | 8.88343 | 5969 ft | 236 kts | 225° |
| 2026-05-05 22:42 | 47.43979 | 8.86413 | 5737 ft | 222 kts | 248° |
| 2026-05-05 22:43 | 47.43701 | 8.84230 | 5410 ft | 214 kts | 270° |
| 2026-05-05 22:43 | 47.43851 | 8.82089 | 5069 ft | 205 kts | 275° |
| 2026-05-05 22:43 | 47.44003 | 8.80050 | 4772 ft | 195 kts | 274° |
| 2026-05-05 22:43 | 47.44140 | 8.78118 | 4521 ft | 183 kts | 274° |
| 2026-05-05 22:44 | 47.44272 | 8.76292 | 4298 ft | 173 kts | 274° |
| 2026-05-05 22:44 | 47.44397 | 8.74572 | 4030 ft | 164 kts | 273° |
| 2026-05-05 22:44 | 47.44517 | 8.72913 | 3798 ft | 161 kts | 273° |
| 2026-05-05 22:44 | 47.44636 | 8.71274 | 3560 ft | 158 kts | 273° |
| 2026-05-05 22:45 | 47.44750 | 8.69706 | 3325 ft | 149 kts | 273° |
| 2026-05-05 22:45 | 47.44859 | 8.68201 | 3115 ft | 145 kts | 274° |
| 2026-05-05 22:45 | 47.44966 | 8.66715 | 2902 ft | 146 kts | 274° |
| 2026-05-05 22:45 | 47.45074 | 8.65212 | 2693 ft | 148 kts | 274° |
| 2026-05-05 22:46 | 47.45183 | 8.63690 | 2462 ft | 151 kts | 275° |
| 2026-05-05 22:46 | 47.45295 | 8.62134 | 2223 ft | 153 kts | 275° |
| 2026-05-05 22:46 | 47.45408 | 8.60579 | 2009 ft | 155 kts | 276° |
| 2026-05-05 22:46 | 47.45523 | 8.58990 | 1767 ft | 156 kts | 276° |
| 2026-05-05 22:47 | 47.45635 | 8.57401 | 1514 ft | 155 kts | 276° |
| 2026-05-05 22:47 | 47.45738 | 8.55942 | 1410 ft | 109 kts | 276° |
| 2026-05-05 22:47 | 47.45777 | 8.55400 | 1408 ft | 51 kts | 276° |
| 2026-05-05 22:47 | 47.45793 | 8.55125 | 1402 ft | 9 kts | 255° |
| 2026-05-05 22:48 | 47.45750 | 8.55127 | 1398 ft | 8 kts | 160° |
| 2026-05-05 22:48 | 47.45688 | 8.55168 | 1398 ft | 11 kts | 155° |
| 2026-05-05 22:48 | 47.45593 | 8.55237 | 1401 ft | 19 kts | 154° |
| 2026-05-05 22:48 | 47.45536 | 8.55357 | 1400 ft | 13 kts | 99° |
| 2026-05-05 22:49 | 47.45529 | 8.55458 | 1410 ft | 7 kts | 95° |
| 2026-05-05 22:49 | 47.45525 | 8.55520 | 1405 ft | 6 kts | 96° |
| 2026-05-05 22:49 | 47.45520 | 8.55596 | 1407 ft | 10 kts | 96° |
| 2026-05-05 22:49 | 47.45508 | 8.55752 | 1410 ft | 21 kts | 96° |
| 2026-05-05 22:50 | 47.45492 | 8.55970 | 1409 ft | 20 kts | 96° |
| 2026-05-05 22:50 | 47.45466 | 8.56115 | 1410 ft | 12 kts | 149° |
| 2026-05-05 22:50 | 47.45411 | 8.56118 | 1407 ft | 3 kts | 185° |
| 2026-05-05 22:50 | 47.45409 | 8.56118 | 1407 ft | 1 kts | 185° |
| 2026-05-05 22:51 | 47.45405 | 8.56117 | 1407 ft | 0 kts | 185° |